createdAt,value
2023-05-12T00:01:17.022Z,101761.97
2023-05-12T00:03:43.755Z,101759.31
2023-05-12T00:06:11.295Z,101757.47
2023-05-12T00:08:38.118Z,101770.50
2023-05-12T00:11:04.622Z,101764.53
2023-05-12T00:13:31.137Z,101760.34
2023-05-12T00:15:58.967Z,101755.88
2023-05-12T00:18:28.229Z,101752.88
2023-05-12T00:20:55.598Z,101755.97
2023-05-12T00:23:22.921Z,101755.63
2023-05-12T00:25:49.940Z,101749.22
2023-05-12T00:28:17.778Z,101756.47
2023-05-12T00:30:44.476Z,101740.88
2023-05-12T00:33:11.090Z,101748.22
2023-05-12T00:35:37.598Z,101743.66
2023-05-12T00:38:04.133Z,101740.66
2023-05-12T00:40:31.009Z,101741.06
2023-05-12T00:42:57.621Z,101736.56
2023-05-12T00:45:24.385Z,101734.31
2023-05-12T00:47:52.300Z,101730.59
2023-05-12T00:50:19.182Z,101742.41
2023-05-12T00:52:47.127Z,101739.31
2023-05-12T00:55:13.754Z,101735.16
2023-05-12T00:57:41.704Z,101737.09
2023-05-12T01:00:08.974Z,101733.34
2023-05-12T01:02:37.716Z,101728.00
2023-05-12T01:05:04.880Z,101729.16
2023-05-12T01:07:33.103Z,101725.34
2023-05-12T01:10:00.825Z,101722.34
2023-05-12T01:12:32.128Z,101725.09
2023-05-12T01:14:59.436Z,101711.47
2023-05-12T01:17:36.085Z,101715.31
2023-05-12T01:20:07.285Z,101707.31
2023-05-12T01:22:35.854Z,101711.88
2023-05-12T01:25:05.353Z,101705.81
2023-05-12T01:27:33.490Z,101705.06
2023-05-12T01:30:02.225Z,101700.91
2023-05-12T01:32:32.609Z,101697.16
2023-05-12T01:34:59.258Z,101707.06
2023-05-12T01:37:26.934Z,101700.56
2023-05-12T01:39:54.703Z,101699.06
2023-05-12T01:42:21.490Z,101703.97
2023-05-12T01:44:48.896Z,101704.72
2023-05-12T01:47:16.004Z,101703.66
2023-05-12T01:49:48.476Z,101705.97
2023-05-12T01:52:16.190Z,101704.06
2023-05-12T01:54:42.716Z,101708.22
2023-05-12T01:57:10.912Z,101716.22
2023-05-12T01:59:38.537Z,101712.41
2023-05-12T02:02:06.461Z,101710.47
2023-05-12T02:04:34.515Z,101711.22
2023-05-12T02:07:01.853Z,101711.97
2023-05-12T02:09:28.765Z,101708.56
2023-05-12T02:11:59.641Z,101707.81
2023-05-12T02:14:26.157Z,101711.66
2023-05-12T02:16:55.608Z,101702.91
2023-05-12T02:19:23.964Z,101696.41
2023-05-12T02:21:50.535Z,101699.06
2023-05-12T02:24:17.099Z,101697.56
2023-05-12T02:26:44.516Z,101700.97
2023-05-12T02:29:12.542Z,101699.81
2023-05-12T02:31:39.161Z,101705.16
2023-05-12T02:34:15.096Z,101697.25
2023-05-12T02:36:41.721Z,101693.81
2023-05-12T02:39:08.501Z,101696.50
2023-05-12T02:41:35.613Z,101697.25
2023-05-12T02:44:02.144Z,101688.50
2023-05-12T02:46:28.701Z,101686.25
2023-05-12T02:48:55.737Z,101687.41
2023-05-12T02:51:22.192Z,101684.75
2023-05-12T02:53:49.659Z,101685.50
2023-05-12T02:56:17.537Z,101690.84
2023-05-12T02:58:43.988Z,101688.59
2023-05-12T03:01:11.848Z,101686.66
2023-05-12T03:03:40.504Z,101681.34
2023-05-12T03:06:07.780Z,101683.66
2023-05-12T03:08:34.896Z,101690.91
2023-05-12T03:11:02.080Z,101690.91
2023-05-12T03:13:28.834Z,101684.41
2023-05-12T03:15:55.680Z,101686.00
2023-05-12T03:18:22.409Z,101677.69
2023-05-12T03:20:50.961Z,101684.50
2023-05-12T03:23:17.409Z,101681.09
2023-05-12T03:25:43.961Z,101675.03
2023-05-12T03:28:11.420Z,101681.09
2023-05-12T03:30:38.281Z,101675.03
2023-05-12T03:33:04.985Z,101671.59
2023-05-12T03:35:31.783Z,101676.09
2023-05-12T03:38:01.492Z,101675.34
2023-05-12T03:40:28.584Z,101671.19
2023-05-12T03:42:55.086Z,101673.09
2023-05-12T03:45:21.883Z,101666.59
2023-05-12T03:47:48.654Z,101668.53
2023-05-12T03:50:15.551Z,101660.13
2023-05-12T03:52:42.159Z,101675.34
2023-05-12T03:55:09.154Z,101680.69
2023-05-12T03:57:36.615Z,101672.69
2023-05-12T04:00:05.135Z,101673.75
2023-05-12T04:02:39.388Z,101668.84
2023-05-12T04:05:08.584Z,101658.19
2023-05-12T04:07:35.135Z,101665.03
2023-05-12T04:10:01.992Z,101665.03
2023-05-12T04:12:28.974Z,101666.84
2023-05-12T04:14:55.843Z,101669.50
2023-05-12T04:17:23.010Z,101667.94
2023-05-12T04:19:49.528Z,101671.34
2023-05-12T04:22:16.615Z,101678.91
2023-05-12T04:24:43.147Z,101671.66
2023-05-12T04:27:09.793Z,101673.91
2023-05-12T04:29:36.965Z,101676.91
2023-05-12T04:32:03.925Z,101678.41
2023-05-12T04:34:30.652Z,101688.66
2023-05-12T04:36:57.180Z,101680.97
2023-05-12T04:39:23.725Z,101688.22
2023-05-12T04:41:50.741Z,101685.13
2023-05-12T04:44:18.352Z,101683.53
2023-05-12T04:46:45.218Z,101685.34
2023-05-12T04:49:11.725Z,101692.59
2023-05-12T04:51:42.866Z,101684.94
2023-05-12T04:54:10.368Z,101692.19
2023-05-12T04:56:37.618Z,101690.28
2023-05-12T04:59:04.781Z,101700.94
2023-05-12T05:01:31.891Z,101702.75
2023-05-12T05:03:58.607Z,101701.50
2023-05-12T05:06:25.271Z,101709.06
2023-05-12T05:08:53.116Z,101713.25
2023-05-12T05:11:19.869Z,101717.41
2023-05-12T05:13:46.380Z,101731.81
2023-05-12T05:16:13.085Z,101724.16
2023-05-12T05:18:42.490Z,101732.47
2023-05-12T05:21:09.105Z,101734.28
2023-05-12T05:23:36.298Z,101738.78
2023-05-12T05:26:02.987Z,101735.28
2023-05-12T05:28:29.515Z,101732.94
2023-05-12T05:30:56.434Z,101734.31
2023-05-12T05:33:23.130Z,101735.41
2023-05-12T05:35:50.122Z,101733.81
2023-05-12T05:38:16.810Z,101735.63
2023-05-12T05:40:52.877Z,101728.72
2023-05-12T05:43:21.265Z,101733.19
2023-05-12T05:45:49.722Z,101736.97
2023-05-12T05:48:16.552Z,101733.47
2023-05-12T05:50:43.266Z,101738.38
2023-05-12T05:53:09.904Z,101747.44
2023-05-12T05:55:36.407Z,101741.28
2023-05-12T05:58:02.975Z,101749.19
2023-05-12T06:00:29.633Z,101761.34
2023-05-12T06:02:56.385Z,101760.50
2023-05-12T06:05:23.297Z,101754.31
2023-05-12T06:07:49.919Z,101757.63
2023-05-12T06:10:16.462Z,101761.34
2023-05-12T06:12:43.255Z,101763.94
2023-05-12T06:15:10.442Z,101768.00
2023-05-12T06:17:37.041Z,101770.13
2023-05-12T06:20:05.200Z,101765.34
2023-05-12T06:22:31.813Z,101774.31
2023-05-12T06:24:58.331Z,101778.72
2023-05-12T06:27:24.898Z,101773.25
2023-05-12T06:29:52.007Z,101781.47
2023-05-12T06:32:18.903Z,101787.78
2023-05-12T06:34:45.503Z,101781.06
2023-05-12T06:37:12.150Z,101790.78
2023-05-12T06:39:38.752Z,101790.03
2023-05-12T06:42:06.459Z,101792.19
2023-05-12T06:44:42.027Z,101796.03
2023-05-12T06:47:09.158Z,101799.78
2023-05-12T06:49:37.096Z,101800.41
2023-05-12T06:52:04.786Z,101807.44
2023-05-12T06:54:31.702Z,101811.06
2023-05-12T06:56:58.524Z,101811.38
2023-05-12T06:59:25.208Z,101814.69
2023-05-12T07:01:51.813Z,101818.44
2023-05-12T07:04:18.329Z,101812.13
2023-05-12T07:06:44.822Z,101813.09
2023-05-12T07:09:11.299Z,101821.94
2023-05-12T07:11:38.060Z,101820.53
2023-05-12T07:14:04.566Z,101820.19
2023-05-12T07:16:31.080Z,101817.81
2023-05-12T07:18:57.555Z,101822.53
2023-05-12T07:21:24.428Z,101821.75
2023-05-12T07:23:50.929Z,101831.50
2023-05-12T07:26:18.547Z,101828.75
2023-05-12T07:28:45.081Z,101832.56
2023-05-12T07:31:11.817Z,101840.81
2023-05-12T07:33:38.304Z,101830.47
2023-05-12T07:36:05.031Z,101836.06
2023-05-12T07:38:32.083Z,101842.19
2023-05-12T07:41:00.054Z,101836.72
2023-05-12T07:43:26.493Z,101833.66
2023-05-12T07:45:54.574Z,101835.75
2023-05-12T07:48:21.059Z,101830.13
2023-05-12T07:50:47.666Z,101833.13
2023-05-12T07:53:14.210Z,101840.72
2023-05-12T07:55:41.185Z,101843.81
2023-05-12T07:58:07.688Z,101847.69
2023-05-12T08:00:34.384Z,101850.38
2023-05-12T08:03:00.975Z,101848.56
2023-05-12T08:05:27.634Z,101850.19
2023-05-12T08:07:54.096Z,101847.16
2023-05-12T08:10:20.649Z,101848.31
2023-05-12T08:12:47.120Z,101846.66
2023-05-12T08:15:13.667Z,101851.75
2023-05-12T08:17:40.206Z,101850.34
2023-05-12T08:20:07.286Z,101855.59
2023-05-12T08:22:33.769Z,101850.97
2023-05-12T08:25:00.321Z,101858.34
2023-05-12T08:27:26.930Z,101851.25
2023-05-12T08:29:53.455Z,101857.22
2023-05-12T08:32:19.979Z,101860.88
2023-05-12T08:34:46.661Z,101863.41
2023-05-12T08:37:13.328Z,101862.47
2023-05-12T08:39:39.909Z,101862.94
2023-05-12T08:42:30.193Z,101870.19
2023-05-12T08:44:59.222Z,101870.56
2023-05-12T08:47:26.670Z,101878.16
2023-05-12T08:50:01.157Z,101881.25
2023-05-12T08:52:29.904Z,101875.00
2023-05-12T08:54:56.989Z,101877.41
2023-05-12T08:57:23.997Z,101882.06
2023-05-12T08:59:54.500Z,101883.81
2023-05-12T09:02:25.218Z,101890.09
2023-05-12T09:04:52.525Z,101886.53
2023-05-12T09:07:19.863Z,101887.09
2023-05-12T09:09:52.138Z,101891.69
2023-05-12T09:12:19.514Z,101894.38
2023-05-12T09:14:51.961Z,101887.13
2023-05-12T09:17:18.723Z,101894.06
2023-05-12T09:19:45.143Z,101895.16
2023-05-12T09:22:14.812Z,101903.47
2023-05-12T09:24:41.606Z,101902.94
2023-05-12T09:27:08.158Z,101901.16
2023-05-12T09:29:45.159Z,101896.00
2023-05-12T09:32:18.248Z,101898.09
2023-05-12T09:34:44.747Z,101903.31
2023-05-12T09:37:12.648Z,101906.28
2023-05-12T09:39:40.462Z,101902.94
2023-05-12T09:42:12.434Z,101906.66
2023-05-12T09:44:39.805Z,101903.84
2023-05-12T09:47:07.196Z,101914.09
2023-05-12T09:49:33.625Z,101916.00
2023-05-12T09:52:00.203Z,101919.72
2023-05-12T09:54:28.299Z,101918.47
2023-05-12T09:56:59.923Z,101925.78
2023-05-12T09:59:34.494Z,101923.75
2023-05-12T10:02:02.987Z,101920.88
2023-05-12T10:04:45.949Z,101920.19
2023-05-12T10:07:14.339Z,101913.22
2023-05-12T10:09:42.557Z,101921.25
2023-05-12T10:12:10.179Z,101921.56
2023-05-12T10:14:40.972Z,101919.63
2023-05-12T10:17:09.383Z,101914.47
2023-05-12T10:19:36.213Z,101919.13
2023-05-12T10:22:03.854Z,101920.13
2023-05-12T10:24:30.313Z,101915.84
2023-05-12T10:26:57.483Z,101912.94
2023-05-12T10:29:32.826Z,101918.09
2023-05-12T10:32:01.184Z,101917.13
2023-05-12T10:34:33.937Z,101914.31
2023-05-12T10:37:00.843Z,101921.53
2023-05-12T10:39:32.787Z,101918.63
2023-05-12T10:42:05.832Z,101914.72
2023-05-12T10:44:32.306Z,101911.25
2023-05-12T10:47:02.159Z,101915.44
2023-05-12T10:49:39.390Z,101922.81
2023-05-12T10:52:07.639Z,101909.25
2023-05-12T10:54:44.355Z,101910.47
2023-05-12T10:57:18.843Z,101919.13
2023-05-12T10:59:57.637Z,101919.38
2023-05-12T11:02:32.033Z,101919.34
2023-05-12T11:05:07.023Z,101926.03
2023-05-12T11:07:35.411Z,101924.81
2023-05-12T11:10:05.287Z,101921.34
2023-05-12T11:12:33.522Z,101918.81
2023-05-12T11:15:01.608Z,101926.38
2023-05-12T11:17:28.847Z,101917.50
2023-05-12T11:19:55.747Z,101922.50
2023-05-12T11:22:23.628Z,101917.09
2023-05-12T11:24:51.285Z,101922.06
2023-05-12T11:27:19.841Z,101923.56
2023-05-12T11:29:59.580Z,101929.50
2023-05-12T11:32:26.768Z,101932.69
2023-05-12T11:34:53.385Z,101932.69
2023-05-12T11:37:27.192Z,101927.22
2023-05-12T11:39:53.849Z,101927.00
2023-05-12T11:42:22.783Z,101929.97
2023-05-12T11:44:50.885Z,101925.97
2023-05-12T11:47:19.809Z,101930.63
2023-05-12T11:49:48.582Z,101928.56
2023-05-12T11:52:15.829Z,101932.13
2023-05-12T11:55:11.543Z,101937.13
2023-05-12T11:57:38.185Z,101933.59
2023-05-12T12:00:07.638Z,101923.44
2023-05-12T12:02:36.715Z,101933.59
2023-05-12T12:05:03.526Z,101928.94
2023-05-12T12:07:34.978Z,101941.81
2023-05-12T12:10:14.704Z,101937.41
2023-05-12T12:12:42.145Z,101939.94
2023-05-12T12:15:09.999Z,101936.75
2023-05-12T12:17:36.728Z,101926.47
2023-05-12T12:20:03.486Z,101928.22
2023-05-12T12:22:34.168Z,101934.16
2023-05-12T12:25:02.304Z,101929.22
2023-05-12T12:27:28.754Z,101930.47
2023-05-12T12:29:55.354Z,101933.44
2023-05-12T12:32:21.802Z,101943.31
2023-05-12T12:34:49.035Z,101941.31
2023-05-12T12:37:16.144Z,101940.31
2023-05-12T12:39:42.804Z,101934.91
2023-05-12T12:42:09.551Z,101942.31
2023-05-12T12:44:36.045Z,101934.13
2023-05-12T12:47:02.608Z,101935.84
2023-05-12T12:49:29.039Z,101941.75
2023-05-12T12:51:55.959Z,101935.34
2023-05-12T12:54:22.550Z,101942.00
2023-05-12T12:56:49.103Z,101942.75
2023-05-12T12:59:15.556Z,101939.03
2023-05-12T13:01:42.865Z,101941.00
2023-05-12T13:04:09.483Z,101945.13
2023-05-12T13:06:36.049Z,101940.16
2023-05-12T13:09:03.865Z,101944.41
2023-05-12T13:11:30.424Z,101944.16
2023-05-12T13:13:56.893Z,101935.56
2023-05-12T13:16:26.338Z,101932.84
2023-05-12T13:18:52.877Z,101932.81
2023-05-12T13:21:19.439Z,101931.78
2023-05-12T13:23:45.921Z,101936.00
2023-05-12T13:26:12.417Z,101941.44
2023-05-12T13:28:38.894Z,101934.34
2023-05-12T13:31:06.086Z,101934.53
2023-05-12T13:33:32.764Z,101926.44
2023-05-12T13:35:59.349Z,101934.78
2023-05-12T13:38:26.294Z,101932.31
2023-05-12T13:40:52.974Z,101932.63
2023-05-12T13:43:19.467Z,101925.47
2023-05-12T13:45:45.976Z,101921.75
2023-05-12T13:48:12.547Z,101937.31
2023-05-12T13:50:39.209Z,101930.41
2023-05-12T13:53:06.521Z,101926.69
2023-05-12T13:55:34.271Z,101926.44
2023-05-12T13:58:00.920Z,101929.91
2023-05-12T14:00:29.717Z,101924.66
2023-05-12T14:02:57.735Z,101925.09
2023-05-12T14:05:24.543Z,101922.28
2023-05-12T14:07:51.254Z,101927.91
2023-05-12T14:10:18.565Z,101929.28
2023-05-12T14:12:45.137Z,101918.75
2023-05-12T14:17:46.410Z,101923.28
2023-05-12T14:20:13.081Z,101923.84
2023-05-12T14:22:39.629Z,101922.25
2023-05-12T14:25:06.445Z,101923.78
2023-05-12T14:27:32.876Z,101924.78
2023-05-12T14:29:59.341Z,101916.16
2023-05-12T14:32:25.838Z,101921.31
2023-05-12T14:34:52.358Z,101922.78
2023-05-12T14:37:18.876Z,101929.22
2023-05-12T14:39:45.425Z,101925.03
2023-05-12T14:42:11.901Z,101921.06
2023-05-12T14:44:38.339Z,101912.69
2023-05-12T14:47:05.923Z,101921.81
2023-05-12T14:49:33.941Z,101918.56
2023-05-12T14:52:00.344Z,101925.22
2023-05-12T14:54:26.855Z,101912.06
2023-05-12T14:56:53.395Z,101922.69
2023-05-12T14:59:19.826Z,101920.28
2023-05-12T15:01:46.477Z,101925.38
2023-05-12T15:04:13.266Z,101916.72
2023-05-12T15:06:40.064Z,101921.44
2023-05-12T15:09:07.210Z,101921.94
2023-05-12T15:11:33.763Z,101924.47
2023-05-12T15:14:00.258Z,101918.81
2023-05-12T15:16:27.994Z,101918.56
2023-05-12T15:18:54.688Z,101919.53
2023-05-12T15:21:21.264Z,101910.66
2023-05-12T15:23:47.803Z,101914.13
2023-05-12T15:26:31.444Z,101911.69
2023-05-12T15:28:59.858Z,101913.94
2023-05-12T15:31:28.991Z,101910.47
2023-05-12T15:33:59.268Z,101914.13
2023-05-12T15:36:25.913Z,101916.56
2023-05-12T15:38:52.395Z,101921.00
2023-05-12T15:41:18.868Z,101913.88
2023-05-12T15:43:45.336Z,101925.03
2023-05-12T15:46:11.939Z,101938.13
2023-05-12T15:48:39.321Z,101950.41
2023-05-12T15:51:07.818Z,101961.56
2023-05-12T15:53:34.501Z,101987.75
2023-05-12T15:56:05.191Z,101988.31
2023-05-12T15:58:32.073Z,101976.19
2023-05-12T16:00:59.022Z,101964.00
2023-05-12T16:03:25.653Z,101945.44
2023-05-12T16:05:52.515Z,101948.88
2023-05-12T16:08:19.103Z,101944.25
2023-05-12T16:10:45.716Z,101938.91
2023-05-12T16:13:12.179Z,101937.19
2023-05-12T16:15:38.618Z,101946.31
2023-05-12T16:18:07.513Z,101954.84
2023-05-12T16:20:35.814Z,101950.56
2023-05-12T16:23:02.601Z,101955.44
2023-05-12T16:25:29.123Z,101954.16
2023-05-12T16:27:55.914Z,101947.47
2023-05-12T16:30:22.701Z,101947.47
2023-05-12T16:32:49.273Z,101950.91
2023-05-12T16:35:15.905Z,101945.44
2023-05-12T16:37:42.685Z,101950.84
2023-05-12T16:40:09.686Z,101948.16
2023-05-12T16:42:37.141Z,101943.00
2023-05-12T16:45:03.751Z,101949.97
2023-05-12T16:47:30.247Z,101944.28
2023-05-12T16:49:58.093Z,101943.75
2023-05-12T16:52:25.499Z,101946.19
2023-05-12T16:54:53.111Z,101950.44
2023-05-12T16:57:20.133Z,101946.25
2023-05-12T16:59:48.264Z,101952.88
2023-05-12T17:02:15.085Z,101957.81
2023-05-12T17:04:41.709Z,101954.09
2023-05-12T17:07:08.252Z,101955.03
2023-05-12T17:09:34.828Z,101960.72
2023-05-12T17:12:01.591Z,101958.94
2023-05-12T17:14:28.220Z,101956.72
2023-05-12T17:16:54.838Z,101952.53
2023-05-12T17:19:22.089Z,101964.81
2023-05-12T17:21:48.879Z,101952.31
2023-05-12T17:24:15.456Z,101964.34
2023-05-12T17:26:42.132Z,101963.59
2023-05-12T17:29:08.632Z,101964.09
2023-05-12T17:31:35.239Z,101969.50
2023-05-12T17:34:01.782Z,101962.59
2023-05-12T17:36:28.879Z,101963.88
2023-05-12T17:38:55.441Z,101969.00
2023-05-12T17:41:21.916Z,101971.66
2023-05-12T17:43:48.464Z,101969.41
2023-05-12T17:46:14.986Z,101976.22
2023-05-12T17:48:41.505Z,101979.13
2023-05-12T17:51:08.119Z,101970.03
2023-05-12T17:53:34.987Z,101982.31
2023-05-12T17:56:01.633Z,101976.66
2023-05-12T17:58:28.096Z,101979.38
2023-05-12T18:00:55.644Z,101976.66
2023-05-12T18:03:25.098Z,101986.50
2023-05-12T18:05:53.273Z,101987.97
2023-05-12T18:08:20.694Z,101985.28
2023-05-12T18:10:47.479Z,101986.03
2023-05-12T18:13:15.360Z,101994.88
2023-05-12T18:15:42.448Z,101990.69
2023-05-12T18:18:10.075Z,101992.88
2023-05-12T18:20:37.236Z,101996.31
2023-05-12T18:23:03.828Z,101998.47
2023-05-12T18:25:30.280Z,101999.09
2023-05-12T18:27:56.757Z,102003.22
2023-05-12T18:30:23.312Z,102004.06
2023-05-12T18:32:50.361Z,102008.84
2023-05-12T18:35:16.941Z,102006.00
2023-05-12T18:37:43.828Z,102004.88
2023-05-12T18:40:11.175Z,102015.50
2023-05-12T18:42:38.338Z,102011.22
2023-05-12T18:45:05.468Z,102014.03
2023-05-12T18:47:32.318Z,102009.50
2023-05-12T18:49:59.082Z,102012.00
2023-05-12T18:52:25.683Z,102027.00
2023-05-12T18:54:52.078Z,102019.00
2023-05-12T18:57:18.822Z,102024.50
2023-05-12T18:59:45.473Z,102027.25
2023-05-12T19:02:12.076Z,102028.06
2023-05-12T19:04:39.103Z,102028.41
2023-05-12T19:07:09.248Z,102035.34
2023-05-12T19:09:36.654Z,102039.16
2023-05-12T19:12:05.711Z,102036.34
2023-05-12T19:14:32.293Z,102046.44
2023-05-12T19:16:58.808Z,102042.28
2023-05-12T19:19:25.343Z,102043.34
2023-05-12T19:21:52.477Z,102051.03
2023-05-12T19:24:19.328Z,102053.47
2023-05-12T19:26:45.711Z,102059.75
2023-05-12T19:29:12.212Z,102069.66
2023-05-12T19:31:38.791Z,102071.16
2023-05-12T19:34:05.408Z,102070.88
2023-05-12T19:36:31.965Z,102076.59
2023-05-12T19:39:00.232Z,102077.06
2023-05-12T19:41:27.811Z,102080.50
2023-05-12T19:43:55.326Z,102080.81
2023-05-12T19:46:22.353Z,102082.63
2023-05-12T19:48:48.989Z,102085.19
2023-05-12T19:51:15.449Z,102087.28
2023-05-12T19:53:43.595Z,102086.84
2023-05-12T19:56:10.133Z,102092.19
2023-05-12T19:58:36.584Z,102093.09
2023-05-12T20:01:03.086Z,102093.09
2023-05-12T20:03:29.664Z,102095.47
2023-05-12T20:05:56.264Z,102093.97
2023-05-12T20:08:22.696Z,102094.88
2023-05-12T20:10:49.148Z,102104.25
2023-05-12T20:13:15.598Z,102103.53
2023-05-12T20:15:43.948Z,102107.09
2023-05-12T20:18:12.567Z,102109.63
2023-05-12T20:20:39.095Z,102109.50
2023-05-12T20:23:05.713Z,102103.06
2023-05-12T20:25:33.153Z,102106.22
2023-05-12T20:27:59.848Z,102110.22
2023-05-12T20:30:26.768Z,102112.63
2023-05-12T20:32:53.437Z,102113.19
2023-05-12T20:35:20.431Z,102116.03
2023-05-12T20:37:47.280Z,102119.59
2023-05-12T20:40:13.889Z,102119.00
2023-05-12T20:42:40.483Z,102124.50
2023-05-12T20:45:07.586Z,102122.25
2023-05-12T20:47:34.818Z,102128.50
2023-05-12T20:50:05.472Z,102137.75
2023-05-12T20:52:33.535Z,102134.03
2023-05-12T20:55:00.449Z,102133.75
2023-05-12T20:57:27.215Z,102130.75
2023-05-12T20:59:56.549Z,102134.31
2023-05-12T21:02:27.635Z,102144.00
2023-05-12T21:04:54.839Z,102138.03
2023-05-12T21:07:21.256Z,102136.97
2023-05-12T21:09:47.863Z,102139.78
2023-05-12T21:12:14.418Z,102144.97
2023-05-12T21:14:42.554Z,102143.94
2023-05-12T21:17:10.383Z,102144.81
2023-05-12T21:19:37.981Z,102151.81
2023-05-12T21:22:05.815Z,102149.25
2023-05-12T21:24:33.119Z,102151.63
2023-05-12T21:27:03.653Z,102152.06
2023-05-12T21:29:32.294Z,102154.91
2023-05-12T21:31:59.445Z,102159.94
2023-05-12T21:34:26.108Z,102161.25
2023-05-12T21:36:52.892Z,102157.06
2023-05-12T21:39:19.313Z,102157.31
2023-05-12T21:41:45.971Z,102159.25
2023-05-12T21:44:12.694Z,102166.25
2023-05-12T21:46:39.187Z,102159.06
2023-05-12T21:49:05.720Z,102164.88
2023-05-12T21:51:33.158Z,102165.75
2023-05-12T21:54:00.044Z,102166.19
2023-05-12T21:56:26.787Z,102169.28
2023-05-12T21:58:53.285Z,102170.47
2023-05-12T22:01:19.830Z,102175.97
2023-05-12T22:03:46.417Z,102177.16
2023-05-12T22:06:12.970Z,102176.09
2023-05-12T22:08:39.512Z,102171.94
2023-05-12T22:11:06.100Z,102168.94
2023-05-12T22:13:32.573Z,102171.31
2023-05-12T22:15:59.950Z,102169.06
2023-05-12T22:18:26.447Z,102180.97
2023-05-12T22:20:52.929Z,102175.28
2023-05-12T22:23:19.329Z,102176.47
2023-05-12T22:25:45.873Z,102179.91
2023-05-12T22:28:12.299Z,102182.28
2023-05-12T22:30:38.726Z,102179.28
2023-05-12T22:33:05.271Z,102184.66
2023-05-12T22:35:31.706Z,102188.94
2023-05-12T22:37:58.217Z,102187.44
2023-05-12T22:40:26.923Z,102190.56
2023-05-12T22:42:53.430Z,102195.94
2023-05-12T22:45:20.037Z,102193.69
2023-05-12T22:47:46.677Z,102199.47
2023-05-12T22:50:13.358Z,102199.47
2023-05-12T22:52:39.917Z,102200.66
2023-05-12T22:55:06.861Z,102204.53
2023-05-12T22:57:33.354Z,102196.47
2023-05-12T23:00:00.243Z,102202.28
2023-05-12T23:02:26.759Z,102188.13
2023-05-12T23:04:53.236Z,102191.97
2023-05-12T23:07:19.637Z,102194.34
2023-05-12T23:09:46.148Z,102199.72
2023-05-12T23:12:12.617Z,102194.34
2023-05-12T23:14:39.099Z,102203.56
2023-05-12T23:17:05.877Z,102197.47
2023-05-12T23:19:32.420Z,102195.63
2023-05-12T23:21:58.947Z,102194.16
2023-05-12T23:24:25.489Z,102196.50
2023-05-12T23:26:52.439Z,102196.19
2023-05-12T23:29:18.952Z,102192.47
2023-05-12T23:31:45.512Z,102186.03
2023-05-12T23:34:12.419Z,102184.53
2023-05-12T23:36:38.955Z,102187.66
2023-05-12T23:39:05.477Z,102187.78
2023-05-12T23:41:33.870Z,102188.19
2023-05-12T23:44:00.340Z,102189.06
2023-05-12T23:46:26.973Z,102186.06
2023-05-12T23:48:55.567Z,102182.75
2023-05-12T23:51:22.902Z,102185.84
2023-05-12T23:53:49.423Z,102180.19
2023-05-12T23:56:15.880Z,102188.31
2023-05-12T23:58:42.501Z,102179.66
